Time;durP1;ratioP1;P1;durP2;ratioP2;P2;SDS_P1;SDS_P2;PMS_P1;PMS_P2;Temp;Humidity;BMP_temperature;BMP_pressure;BME280_temperature;BME280_humidity;BME280_pressure;Samples;Min_cycle;Max_cycle;Signal;HPM_P1;HPM_P2
2023/06/21 02:24:12;;;;;;;1999.90;999.90;;;;;;;;;;6144594;22;20289;-69
2023/06/21 02:26:57;;;;;;;1999.90;999.90;;;;;;;;;;5005059;28;20218;-72
2023/06/21 02:29:42;;;;;;;1999.90;999.90;;;;;;;;;;5011001;28;20213;-70
2023/06/21 02:32:26;;;;;;;1999.90;999.90;;;;;;;;;;5007481;28;20203;-70
2023/06/21 02:35:11;;;;;;;1999.90;999.90;;;;;;;;;;5014824;28;20341;-71
2023/06/21 02:37:56;;;;;;;1999.90;999.90;;;;;;;;;;5014807;28;20205;-71
2023/06/21 02:40:43;;;;;;;1999.90;999.90;;;;;;;;;;5014876;28;20585;-71
2023/06/21 02:43:28;;;;;;;1999.90;999.90;;;;;;;;;;5014552;28;20307;-71
2023/06/21 02:46:13;;;;;;;1999.90;999.90;;;;;;;;;;5013822;28;20237;-71
2023/06/21 02:48:58;;;;;;;1999.90;999.90;;;;;;;;;;5012697;28;20267;-70
2023/06/21 02:51:45;;;;;;;1999.90;999.90;;;;;;;;;;5014272;28;20352;-71
2023/06/21 02:54:30;;;;;;;1999.90;999.90;;;;;;;;;;5012516;28;20308;-70
2023/06/21 02:57:16;;;;;;;1999.90;999.90;;;;;;;;;;5013951;28;20233;-69
2023/06/21 03:00:04;;;;;;;1999.90;999.90;;;;;;;;;;5013349;28;20404;-71
2023/06/21 03:02:50;;;;;;;1999.90;999.90;;;;;;;;;;5010317;28;20272;-70
2023/06/21 03:05:35;;;;;;;1999.90;999.90;;;;;;;;;;5014119;28;20590;-69
2023/06/21 03:08:20;;;;;;;1999.90;999.90;;;;;;;;;;5014203;28;20760;-70
2023/06/21 03:11:08;;;;;;;1999.90;999.90;;;;;;;;;;5014018;28;20208;-70
2023/06/21 03:13:54;;;;;;;1999.90;999.90;;;;;;;;;;5013887;28;20208;-68
2023/06/21 03:16:40;;;;;;;1999.90;999.90;;;;;;;;;;5013469;28;20432;-70
2023/06/21 03:19:25;;;;;;;1999.90;999.90;;;;;;;;;;5012336;28;20339;-70
2023/06/21 03:22:10;;;;;;;1999.90;999.90;;;;;;;;;;5013531;28;20210;-70
2023/06/21 03:24:55;;;;;;;1999.90;999.90;;;;;;;;;;5013565;28;20242;-69
2023/06/21 03:27:40;;;;;;;1999.90;999.90;;;;;;;;;;5011977;28;20213;-70
2023/06/21 03:30:27;;;;;;;1999.90;999.90;;;;;;;;;;5013587;28;20679;-71
2023/06/21 03:33:12;;;;;;;1999.90;999.90;;;;;;;;;;5000543;28;20219;-70
2023/06/21 03:35:57;;;;;;;1999.90;999.90;;;;;;;;;;5013623;28;20224;-71
2023/06/21 03:38:41;;;;;;;1999.90;999.90;;;;;;;;;;4994565;28;20292;-70
2023/06/21 03:41:26;;;;;;;1999.90;999.90;;;;;;;;;;4993688;28;20243;-71
2023/06/21 03:44:11;;;;;;;1999.90;999.90;;;;;;;;;;4994482;28;20699;-71
2023/06/21 03:46:59;;;;;;;1999.90;999.90;;;;;;;;;;5007562;28;20217;-71
2023/06/21 03:49:44;;;;;;;1999.90;999.90;;;;;;;;;;5002656;28;20210;-70
2023/06/21 03:52:29;;;;;;;1999.90;999.90;;;;;;;;;;5009578;28;20283;-71
2023/06/21 03:55:14;;;;;;;1999.90;999.90;;;;;;;;;;5013073;28;20233;-71
2023/06/21 03:57:59;;;;;;;1999.90;999.90;;;;;;;;;;5012363;28;20261;-71
2023/06/21 04:00:43;;;;;;;1999.90;999.90;;;;;;;;;;5011850;28;20713;-70
2023/06/21 04:03:30;;;;;;;1999.90;999.90;;;;;;;;;;5009278;28;20224;-70
2023/06/21 04:06:15;;;;;;;1999.90;999.90;;;;;;;;;;5011468;28;20236;-71
2023/06/21 04:08:59;;;;;;;1999.90;999.90;;;;;;;;;;5010814;28;20459;-70
2023/06/21 04:11:45;;;;;;;1999.90;999.90;;;;;;;;;;5010520;28;20218;-71
2023/06/21 04:14:30;;;;;;;1999.90;999.90;;;;;;;;;;5012181;28;20318;-67
2023/06/21 04:17:15;;;;;;;1999.90;999.90;;;;;;;;;;5013125;28;20328;-70
2023/06/21 04:20:07;;;;;;;1999.90;999.90;;;;;;;;;;5010939;28;20217;-71
2023/06/21 04:22:52;;;;;;;1999.90;999.90;;;;;;;;;;5009451;28;20233;-71
2023/06/21 04:25:37;;;;;;;1999.90;999.90;;;;;;;;;;5010165;28;20241;-71
2023/06/21 04:28:25;;;;;;;1999.90;999.90;;;;;;;;;;5012350;28;20707;-71
2023/06/21 04:31:10;;;;;;;1999.90;999.90;;;;;;;;;;5012231;28;20213;-71
2023/06/21 04:33:55;;;;;;;1999.90;999.90;;;;;;;;;;5012251;28;20206;-71
2023/06/21 04:36:41;;;;;;;1999.90;999.90;;;;;;;;;;5011604;28;20585;-71
2023/06/21 04:39:26;;;;;;;1999.90;999.90;;;;;;;;;;5007534;28;20345;-69
2023/06/21 04:42:11;;;;;;;1999.90;999.90;;;;;;;;;;5011486;28;20460;-71
2023/06/21 04:44:58;;;;;;;1999.90;999.90;;;;;;;;;;5011915;28;20230;-71
2023/06/21 04:47:43;;;;;;;1999.90;999.90;;;;;;;;;;5009135;28;20692;-71
2023/06/21 04:50:28;;;;;;;1999.90;999.90;;;;;;;;;;5012213;28;20207;-70
2023/06/21 04:53:15;;;;;;;1999.90;999.90;;;;;;;;;;5011430;28;20213;-70
2023/06/21 04:56:00;;;;;;;1999.90;999.90;;;;;;;;;;5012157;28;20595;-71
2023/06/21 04:58:45;;;;;;;1999.90;999.90;;;;;;;;;;5007004;28;20261;-68
2023/06/21 05:01:30;;;;;;;1999.90;999.90;;;;;;;;;;5009010;28;20885;-69
2023/06/21 05:04:15;;;;;;;1999.90;999.90;;;;;;;;;;5011592;28;20218;-70
2023/06/21 05:07:00;;;;;;;1999.90;999.90;;;;;;;;;;5011949;28;20350;-71
2023/06/21 05:09:46;;;;;;;1999.90;999.90;;;;;;;;;;5009288;28;20211;-71
2023/06/21 05:12:31;;;;;;;1999.90;999.90;;;;;;;;;;5006932;28;20702;-71
2023/06/21 05:15:16;;;;;;;1999.90;999.90;;;;;;;;;;5011490;28;20241;-70
2023/06/21 05:18:01;;;;;;;1999.90;999.90;;;;;;;;;;5011639;28;20202;-71
2023/06/21 05:20:46;;;;;;;1999.90;999.90;;;;;;;;;;5010049;28;20263;-71
2023/06/21 05:23:31;;;;;;;1999.90;999.90;;;;;;;;;;5011184;28;20210;-71
2023/06/21 05:26:17;;;;;;;1999.90;999.90;;;;;;;;;;5011532;28;20370;-72
2023/06/21 05:29:02;;;;;;;1999.90;999.90;;;;;;;;;;5009792;28;20210;-71
2023/06/21 05:31:47;;;;;;;1999.90;999.90;;;;;;;;;;5010976;28;20329;-71
2023/06/21 05:34:32;;;;;;;1999.90;999.90;;;;;;;;;;5011312;28;20733;-71
2023/06/21 05:37:17;;;;;;;1999.90;999.90;;;;;;;;;;5011163;28;20230;-71
2023/06/21 05:40:02;;;;;;;1999.90;999.90;;;;;;;;;;5010929;28;20261;-71
2023/06/21 05:42:49;;;;;;;1999.90;999.90;;;;;;;;;;5011838;28;20790;-70
2023/06/21 05:45:34;;;;;;;1999.90;999.90;;;;;;;;;;5010263;28;20235;-71
2023/06/21 05:48:19;;;;;;;1999.90;999.90;;;;;;;;;;5011125;28;20222;-69
2023/06/21 05:51:04;;;;;;;1999.90;999.90;;;;;;;;;;5011404;28;20218;-69
2023/06/21 05:53:49;;;;;;;1999.90;999.90;;;;;;;;;;5007775;28;21036;-70
2023/06/21 05:56:37;;;;;;;1999.90;999.90;;;;;;;;;;5009589;28;20285;-70
2023/06/21 05:59:23;;;;;;;1999.90;999.90;;;;;;;;;;5011467;28;20217;-69
2023/06/21 06:02:08;;;;;;;1999.90;999.90;;;;;;;;;;5011195;28;20291;-69
2023/06/21 06:04:54;;;;;;;1999.90;999.90;;;;;;;;;;5013063;28;20592;-69
2023/06/21 06:07:39;;;;;;;1999.90;999.90;;;;;;;;;;5010680;28;20266;-71
2023/06/21 06:10:24;;;;;;;1999.90;999.90;;;;;;;;;;5014744;28;20207;-71
2023/06/21 06:13:09;;;;;;;1999.90;999.90;;;;;;;;;;5013296;28;20269;-70
2023/06/21 06:15:55;;;;;;;1999.90;999.90;;;;;;;;;;5015067;28;20609;-70
2023/06/21 06:18:41;;;;;;;1999.90;999.90;;;;;;;;;;5015140;28;20198;-69
2023/06/21 06:21:25;;;;;;;1999.90;999.90;;;;;;;;;;5014576;28;20212;-71
2023/06/21 06:24:10;;;;;;;1999.90;999.90;;;;;;;;;;5014509;28;20210;-71
2023/06/21 06:26:55;;;;;;;1999.90;999.90;;;;;;;;;;5014830;28;20326;-71
2023/06/21 06:29:40;;;;;;;1999.90;999.90;;;;;;;;;;5014758;28;20724;-71
2023/06/21 06:32:27;;;;;;;1999.90;999.90;;;;;;;;;;5014791;28;20569;-70
2023/06/21 06:35:12;;;;;;;1999.90;999.90;;;;;;;;;;5013313;28;20234;-71
2023/06/21 06:37:57;;;;;;;1999.90;999.90;;;;;;;;;;5014392;28;20640;-72
2023/06/21 06:40:42;;;;;;;1999.90;999.90;;;;;;;;;;5014659;28;20217;-72
2023/06/21 06:43:27;;;;;;;1999.90;999.90;;;;;;;;;;5014428;28;20573;-69
2023/06/21 06:46:12;;;;;;;1999.90;999.90;;;;;;;;;;5012972;28;20441;-70
2023/06/21 06:48:59;;;;;;;1999.90;999.90;;;;;;;;;;5013679;28;20585;-70
2023/06/21 06:51:45;;;;;;;1999.90;999.90;;;;;;;;;;5010939;28;20258;-69
2023/06/21 06:54:30;;;;;;;1999.90;999.90;;;;;;;;;;5012337;28;20292;-69
2023/06/21 06:57:15;;;;;;;1999.90;999.90;;;;;;;;;;5013827;28;20600;-70
2023/06/21 07:00:00;;;;;;;1999.90;999.90;;;;;;;;;;5013865;28;20737;-71
2023/06/21 07:02:45;;;;;;;1999.90;999.90;;;;;;;;;;5013688;28;20226;-70
2023/06/21 07:05:35;;;;;;;1999.90;999.90;;;;;;;;;;5011447;28;20814;-71
2023/06/21 07:08:20;;;;;;;1999.90;999.90;;;;;;;;;;5010584;28;20230;-71
2023/06/21 07:11:05;;;;;;;1999.90;999.90;;;;;;;;;;5010566;28;20214;-71
2023/06/21 07:13:50;;;;;;;1999.90;999.90;;;;;;;;;;5013797;28;20306;-70
2023/06/21 07:16:35;;;;;;;1999.90;999.90;;;;;;;;;;5010052;28;20223;-71
2023/06/21 07:19:20;;;;;;;1999.90;999.90;;;;;;;;;;5012667;28;20218;-72
2023/06/21 07:22:06;;;;;;;1999.90;999.90;;;;;;;;;;5007122;28;20211;-71
2023/06/21 07:24:51;;;;;;;1999.90;999.90;;;;;;;;;;5009545;28;20607;-72
2023/06/21 07:27:36;;;;;;;1999.90;999.90;;;;;;;;;;5010752;28;20211;-71
2023/06/21 07:30:22;;;;;;;1999.90;999.90;;;;;;;;;;5012764;28;20206;-71
2023/06/21 07:33:08;;;;;;;1999.90;999.90;;;;;;;;;;5013174;28;20203;-72
2023/06/21 07:35:53;;;;;;;1999.90;999.90;;;;;;;;;;5011617;28;20290;-72
2023/06/21 07:38:39;;;;;;;1999.90;999.90;;;;;;;;;;5007890;28;20509;-72
2023/06/21 07:41:24;;;;;;;1999.90;999.90;;;;;;;;;;5013129;28;20213;-71
2023/06/21 07:44:09;;;;;;;1999.90;999.90;;;;;;;;;;5010623;28;20213;-73
2023/06/21 07:46:55;;;;;;;1999.90;999.90;;;;;;;;;;5011821;28;20769;-72
2023/06/21 07:49:39;;;;;;;1999.90;999.90;;;;;;;;;;5012676;28;20218;-73
2023/06/21 07:52:25;;;;;;;1999.90;999.90;;;;;;;;;;5012865;28;20574;-72
2023/06/21 07:55:11;;;;;;;1999.90;999.90;;;;;;;;;;5012853;28;20233;-73
2023/06/21 07:57:57;;;;;;;1999.90;999.90;;;;;;;;;;5012735;28;20222;-73
2023/06/21 08:00:41;;;;;;;1999.90;999.90;;;;;;;;;;5009755;28;20214;-73
2023/06/21 08:03:26;;;;;;;1999.90;999.90;;;;;;;;;;5010426;28;20214;-73
2023/06/21 08:06:12;;;;;;;1999.90;999.90;;;;;;;;;;5012666;28;20369;-73
2023/06/21 08:08:57;;;;;;;1999.90;999.90;;;;;;;;;;5012726;28;20753;-72
2023/06/21 08:11:43;;;;;;;1999.90;999.90;;;;;;;;;;5012581;28;20213;-73
2023/06/21 08:14:28;;;;;;;1999.90;999.90;;;;;;;;;;5009381;28;20726;-73
2023/06/21 08:17:13;;;;;;;1999.90;999.90;;;;;;;;;;5012360;28;20222;-73
2023/06/21 08:19:59;;;;;;;1999.90;999.90;;;;;;;;;;5012172;28;20202;-73
2023/06/21 08:22:44;;;;;;;1999.90;999.90;;;;;;;;;;5008373;28;20219;-72
2023/06/21 08:25:29;;;;;;;1999.90;999.90;;;;;;;;;;5009700;28;20237;-73
2023/06/21 08:28:16;;;;;;;1999.90;999.90;;;;;;;;;;5012053;28;20293;-73
2023/06/21 08:31:01;;;;;;;1999.90;999.90;;;;;;;;;;5011363;28;20924;-73
2023/06/21 08:33:46;;;;;;;1999.90;999.90;;;;;;;;;;5012209;28;20575;-72
2023/06/21 08:36:30;;;;;;;1999.90;999.90;;;;;;;;;;5011131;28;20265;-72
2023/06/21 08:39:15;;;;;;;1999.90;999.90;;;;;;;;;;5012045;28;20246;-72
2023/06/21 08:42:00;;;;;;;1999.90;999.90;;;;;;;;;;5009435;28;20563;-72
2023/06/21 08:44:47;;;;;;;1999.90;999.90;;;;;;;;;;5011811;28;20234;-72
2023/06/21 08:47:33;;;;;;;1999.90;999.90;;;;;;;;;;5008059;28;20699;-72
2023/06/21 08:50:19;;;;;;;1999.90;999.90;;;;;;;;;;5011822;28;20215;-72
2023/06/21 08:53:06;;;;;;;1999.90;999.90;;;;;;;;;;5011486;28;20226;-70
2023/06/21 08:55:51;;;;;;;1999.90;999.90;;;;;;;;;;5011892;28;20285;-73
2023/06/21 08:58:40;;;;;;;1999.90;999.90;;;;;;;;;;5009569;28;20226;-72
2023/06/21 09:01:29;;;;;;;1999.90;999.90;;;;;;;;;;5011638;28;20580;-73
2023/06/21 09:04:16;;;;;;;1999.90;999.90;;;;;;;;;;5009949;28;20424;-72
2023/06/21 09:07:02;;;;;;;1999.90;999.90;;;;;;;;;;5011565;28;20330;-73
2023/06/21 09:09:48;;;;;;;1999.90;999.90;;;;;;;;;;5007653;28;20261;-72
2023/06/21 09:12:34;;;;;;;1999.90;999.90;;;;;;;;;;5005070;28;20201;-72
2023/06/21 09:15:20;;;;;;;1999.90;999.90;;;;;;;;;;5011963;28;20301;-73
2023/06/21 09:18:07;;;;;;;1999.90;999.90;;;;;;;;;;5009371;28;20349;-71
2023/06/21 09:20:52;;;;;;;1999.90;999.90;;;;;;;;;;5011580;28;20589;-71
2023/06/21 09:23:38;;;;;;;1999.90;999.90;;;;;;;;;;5006670;28;20422;-71
2023/06/21 09:26:23;;;;;;;1999.90;999.90;;;;;;;;;;5011107;28;20234;-70
2023/06/21 09:29:08;;;;;;;1999.90;999.90;;;;;;;;;;5011446;28;20206;-69
2023/06/21 09:31:53;;;;;;;1999.90;999.90;;;;;;;;;;5011021;28;20201;-70
2023/06/21 09:34:40;;;;;;;1999.90;999.90;;;;;;;;;;5008066;28;20230;-71
2023/06/21 09:37:32;;;;;;;1999.90;999.90;;;;;;;;;;5011511;28;20218;-69
2023/06/21 09:40:17;;;;;;;1999.90;999.90;;;;;;;;;;5013739;28;20214;-69
2023/06/21 09:43:02;;;;;;;1999.90;999.90;;;;;;;;;;5015073;28;20613;-68
2023/06/21 09:46:00;;;;;;;1999.90;999.90;;;;;;;;;;5015467;28;20729;-69
2023/06/21 09:48:45;;;;;;;1999.90;999.90;;;;;;;;;;5010675;28;20254;-71
2023/06/21 09:51:31;;;;;;;1999.90;999.90;;;;;;;;;;5013981;28;20202;-71
2023/06/21 09:54:16;;;;;;;1999.90;999.90;;;;;;;;;;5014689;28;20781;-71
2023/06/21 09:57:01;;;;;;;1999.90;999.90;;;;;;;;;;5014985;28;20733;-71
2023/06/21 09:59:48;;;;;;;1999.90;999.90;;;;;;;;;;5014691;28;20207;-71
2023/06/21 10:02:38;;;;;;;1999.90;999.90;;;;;;;;;;5011179;28;20223;-71
2023/06/21 10:05:23;;;;;;;1999.90;999.90;;;;;;;;;;5014840;28;20354;-70
2023/06/21 10:08:09;;;;;;;1999.90;999.90;;;;;;;;;;5014951;28;20210;-71
2023/06/21 10:10:54;;;;;;;1999.90;999.90;;;;;;;;;;5014803;28;20202;-69
2023/06/21 10:13:40;;;;;;;1999.90;999.90;;;;;;;;;;5014597;28;20546;-70
2023/06/21 10:16:25;;;;;;;1999.90;999.90;;;;;;;;;;5015050;28;20209;-70
2023/06/21 10:19:10;;;;;;;1999.90;999.90;;;;;;;;;;5012924;28;20719;-70
2023/06/21 10:21:59;;;;;;;1999.90;999.90;;;;;;;;;;5014679;28;20584;-70
2023/06/21 10:24:47;;;;;;;1999.90;999.90;;;;;;;;;;5011424;28;20293;-71
2023/06/21 10:27:33;;;;;;;1999.90;999.90;;;;;;;;;;5014654;28;20210;-71
2023/06/21 10:30:20;;;;;;;1999.90;999.90;;;;;;;;;;5014627;28;20258;-71
2023/06/21 10:33:05;;;;;;;1999.90;999.90;;;;;;;;;;5014417;28;20601;-69
2023/06/21 10:35:52;;;;;;;1999.90;999.90;;;;;;;;;;5014457;28;20516;-69
2023/06/21 10:38:39;;;;;;;1999.90;999.90;;;;;;;;;;5014458;28;20219;-71
2023/06/21 10:41:26;;;;;;;1999.90;999.90;;;;;;;;;;5013484;28;20203;-70
2023/06/21 10:44:12;;;;;;;1999.90;999.90;;;;;;;;;;5013582;28;20210;-70
2023/06/21 10:46:58;;;;;;;1999.90;999.90;;;;;;;;;;5013355;28;20614;-70
2023/06/21 10:49:44;;;;;;;1999.90;999.90;;;;;;;;;;5010482;28;20210;-70
2023/06/21 10:52:29;;;;;;;1999.90;999.90;;;;;;;;;;5013309;28;20694;-72
2023/06/21 10:55:14;;;;;;;1999.90;999.90;;;;;;;;;;5013696;28;20234;-71
2023/06/21 10:58:01;;;;;;;1999.90;999.90;;;;;;;;;;5013996;28;20722;-71
2023/06/21 11:00:47;;;;;;;1999.90;999.90;;;;;;;;;;5011962;28;20221;-71
2023/06/21 11:03:32;;;;;;;1999.90;999.90;;;;;;;;;;5011949;28;20319;-70
2023/06/21 11:06:28;;;;;;;1999.90;999.90;;;;;;;;;;5012857;28;20199;-71
2023/06/21 11:09:17;;;;;;;1999.90;999.90;;;;;;;;;;5013730;28;20407;-71
2023/06/21 11:12:07;;;;;;;1999.90;999.90;;;;;;;;;;5013656;28;20207;-71
2023/06/21 11:14:54;;;;;;;1999.90;999.90;;;;;;;;;;5013781;28;20598;-71
2023/06/21 11:17:40;;;;;;;1999.90;999.90;;;;;;;;;;5003069;28;20227;-70
2023/06/21 11:20:25;;;;;;;1999.90;999.90;;;;;;;;;;5013142;28;20245;-70
2023/06/21 11:23:10;;;;;;;1999.90;999.90;;;;;;;;;;5013442;28;20284;-73
2023/06/21 11:25:58;;;;;;;1999.90;999.90;;;;;;;;;;5012189;28;20680;-73
2023/06/21 11:28:44;;;;;;;1999.90;999.90;;;;;;;;;;5013169;28;20203;-73
2023/06/21 11:31:39;;;;;;;1999.90;999.90;;;;;;;;;;5008631;28;20207;-74
2023/06/21 11:34:24;;;;;;;1999.90;999.90;;;;;;;;;;5011021;28;20231;-71
2023/06/21 11:37:28;;;;;;;1999.90;999.90;;;;;;;;;;5009208;28;20230;-73
2023/06/21 11:40:15;;;;;;;1999.90;999.90;;;;;;;;;;5007856;28;20435;-72
2023/06/21 11:43:06;;;;;;;1999.90;999.90;;;;;;;;;;5008241;28;20210;-73
2023/06/21 11:45:55;;;;;;;1999.90;999.90;;;;;;;;;;5009474;28;20273;-72
2023/06/21 11:48:41;;;;;;;1999.90;999.90;;;;;;;;;;5009302;28;20199;-72
2023/06/21 11:51:28;;;;;;;1999.90;999.90;;;;;;;;;;5008696;28;20817;-73
2023/06/21 11:54:28;;;;;;;1999.90;999.90;;;;;;;;;;5010062;28;20214;-72
2023/06/21 11:57:14;;;;;;;1999.90;999.90;;;;;;;;;;5008769;28;20233;-70
2023/06/21 12:00:00;;;;;;;1999.90;999.90;;;;;;;;;;5012087;28;20535;-70
2023/06/21 12:02:45;;;;;;;1999.90;999.90;;;;;;;;;;4997531;28;20207;-71
2023/06/21 12:05:44;;;;;;;1999.90;999.90;;;;;;;;;;5003554;28;20735;-70
2023/06/21 12:08:29;;;;;;;1999.90;999.90;;;;;;;;;;5012293;28;20317;-70
2023/06/21 12:11:14;;;;;;;1999.90;999.90;;;;;;;;;;5012537;28;20222;-70
2023/06/21 12:13:59;;;;;;;1999.90;999.90;;;;;;;;;;5012461;28;20289;-69
2023/06/21 12:16:44;;;;;;;1999.90;999.90;;;;;;;;;;5012220;28;20207;-71
2023/06/21 12:19:31;;;;;;;1999.90;999.90;;;;;;;;;;5009047;28;20226;-72
2023/06/21 12:22:21;;;;;;;1999.90;999.90;;;;;;;;;;5012454;28;20273;-72
2023/06/21 12:25:06;;;;;;;1999.90;999.90;;;;;;;;;;5012151;28;20285;-71
2023/06/21 12:27:52;;;;;;;1999.90;999.90;;;;;;;;;;5009613;28;20233;-72
2023/06/21 12:30:45;;;;;;;1999.90;999.90;;;;;;;;;;5010938;28;20408;-74
2023/06/21 12:33:31;;;;;;;1999.90;999.90;;;;;;;;;;5012890;28;20286;-74
2023/06/21 12:36:17;;;;;;;1999.90;999.90;;;;;;;;;;5013145;28;20253;-74
2023/06/21 12:39:04;;;;;;;1999.90;999.90;;;;;;;;;;5012627;28;20609;-74
2023/06/21 12:41:49;;;;;;;1999.90;999.90;;;;;;;;;;5012074;28;20212;-74
2023/06/21 12:44:34;;;;;;;1999.90;999.90;;;;;;;;;;5011959;28;20789;-74
2023/06/21 12:47:19;;;;;;;1999.90;999.90;;;;;;;;;;5013592;28;20257;-72
2023/06/21 12:50:05;;;;;;;1999.90;999.90;;;;;;;;;;5012520;28;20285;-74
2023/06/21 12:52:58;;;;;;;1999.90;999.90;;;;;;;;;;5012542;28;20289;-74
2023/06/21 12:55:47;;;;;;;1999.90;999.90;;;;;;;;;;5011676;28;20302;-74
2023/06/21 12:58:33;;;;;;;1999.90;999.90;;;;;;;;;;5008819;28;20458;-74
2023/06/21 13:01:17;;;;;;;1999.90;999.90;;;;;;;;;;5012025;28;20206;-74
2023/06/21 13:04:04;;;;;;;1999.90;999.90;;;;;;;;;;5012057;28;20746;-75
2023/06/21 13:06:50;;;;;;;1999.90;999.90;;;;;;;;;;5010637;28;20214;-76
2023/06/21 13:09:35;;;;;;;1999.90;999.90;;;;;;;;;;5011416;28;20270;-69
2023/06/21 13:12:21;;;;;;;1999.90;999.90;;;;;;;;;;5011843;28;20226;-71
2023/06/21 13:15:07;;;;;;;1999.90;999.90;;;;;;;;;;5010565;28;20234;-70
2023/06/21 13:17:52;;;;;;;1999.90;999.90;;;;;;;;;;5011741;28;20206;-70
2023/06/21 13:20:39;;;;;;;1999.90;999.90;;;;;;;;;;5012083;28;20199;-72
2023/06/21 13:23:24;;;;;;;1999.90;999.90;;;;;;;;;;5011315;28;20479;-72
2023/06/21 13:26:09;;;;;;;1999.90;999.90;;;;;;;;;;5011151;28;20266;-74
2023/06/21 13:28:55;;;;;;;1999.90;999.90;;;;;;;;;;5011522;28;20202;-71
2023/06/21 13:31:40;;;;;;;1999.90;999.90;;;;;;;;;;5010587;28;20211;-71
2023/06/21 13:34:25;;;;;;;1999.90;999.90;;;;;;;;;;5011521;28;20238;-71
2023/06/21 13:37:10;;;;;;;1999.90;999.90;;;;;;;;;;5009678;28;20885;-72
2023/06/21 13:39:55;;;;;;;1999.90;999.90;;;;;;;;;;5008321;28;20790;-73
2023/06/21 13:42:40;;;;;;;1999.90;999.90;;;;;;;;;;5009823;28;20218;-73
2023/06/21 13:45:26;;;;;;;1999.90;999.90;;;;;;;;;;5010880;28;20417;-73
2023/06/21 13:48:11;;;;;;;1999.90;999.90;;;;;;;;;;5012516;28;20627;-73
2023/06/21 13:50:56;;;;;;;1999.90;999.90;;;;;;;;;;5011151;28;20237;-73
2023/06/21 13:53:44;;;;;;;1999.90;999.90;;;;;;;;;;5011219;28;20582;-73
2023/06/21 13:56:29;;;;;;;1999.90;999.90;;;;;;;;;;5012148;28;20311;-73
2023/06/21 13:59:13;;;;;;;1999.90;999.90;;;;;;;;;;5011956;28;20693;-72
2023/06/21 14:02:00;;;;;;;1999.90;999.90;;;;;;;;;;5012548;28;20194;-74
2023/06/21 14:04:45;;;;;;;1999.90;999.90;;;;;;;;;;5011976;28;20601;-73
2023/06/21 14:07:30;;;;;;;1999.90;999.90;;;;;;;;;;5011708;28;20215;-73
2023/06/21 14:10:15;;;;;;;1999.90;999.90;;;;;;;;;;5008764;28;20588;-72
2023/06/21 14:13:00;;;;;;;1999.90;999.90;;;;;;;;;;5009517;28;20460;-72
2023/06/21 14:15:45;;;;;;;1999.90;999.90;;;;;;;;;;5009035;28;20277;-74
2023/06/21 14:18:32;;;;;;;1999.90;999.90;;;;;;;;;;5010515;28;20207;-73
2023/06/21 14:21:17;;;;;;;1999.90;999.90;;;;;;;;;;5008932;28;20264;-72
2023/06/21 14:24:01;;;;;;;1999.90;999.90;;;;;;;;;;5008703;28;20573;-73
2023/06/21 14:26:46;;;;;;;1999.90;999.90;;;;;;;;;;5013179;28;20202;-73
2023/06/21 14:29:31;;;;;;;1999.90;999.90;;;;;;;;;;5013096;28;20346;-72
2023/06/21 14:32:16;;;;;;;1999.90;999.90;;;;;;;;;;5013745;28;20565;-74
2023/06/21 14:35:02;;;;;;;1999.90;999.90;;;;;;;;;;5012682;28;20777;-74
2023/06/21 14:37:49;;;;;;;1999.90;999.90;;;;;;;;;;5012157;28;20408;-73
2023/06/21 14:40:34;;;;;;;1999.90;999.90;;;;;;;;;;5012797;28;20230;-73
2023/06/21 14:43:19;;;;;;;1999.90;999.90;;;;;;;;;;5012157;28;20627;-72
2023/06/21 14:46:04;;;;;;;1999.90;999.90;;;;;;;;;;5013205;28;20593;-73
2023/06/21 14:48:52;;;;;;;1999.90;999.90;;;;;;;;;;5013421;28;20202;-74
2023/06/21 14:51:38;;;;;;;1999.90;999.90;;;;;;;;;;5012639;28;20300;-74
2023/06/21 14:54:24;;;;;;;1999.90;999.90;;;;;;;;;;5010773;28;20234;-74
2023/06/21 14:57:10;;;;;;;1999.90;999.90;;;;;;;;;;5012099;28;20306;-74
2023/06/21 14:59:56;;;;;;;1999.90;999.90;;;;;;;;;;5011507;28;20293;-73
2023/06/21 15:02:41;;;;;;;1999.90;999.90;;;;;;;;;;5010256;28;20300;-71
2023/06/21 15:05:26;;;;;;;1999.90;999.90;;;;;;;;;;5010944;28;20226;-74
2023/06/21 15:08:12;;;;;;;1999.90;999.90;;;;;;;;;;5009099;28;20563;-74
2023/06/21 15:10:57;;;;;;;1999.90;999.90;;;;;;;;;;5009745;28;20206;-76
2023/06/21 15:13:42;;;;;;;1999.90;999.90;;;;;;;;;;5012146;28;20210;-73
2023/06/21 15:16:28;;;;;;;1999.90;999.90;;;;;;;;;;5009652;28;20330;-75
2023/06/21 15:19:13;;;;;;;1999.90;999.90;;;;;;;;;;5011174;28;20233;-75
2023/06/21 15:21:58;;;;;;;1999.90;999.90;;;;;;;;;;5013048;28;20207;-75
2023/06/21 15:24:44;;;;;;;1999.90;999.90;;;;;;;;;;5012637;28;20293;-74
2023/06/21 15:27:29;;;;;;;1999.90;999.90;;;;;;;;;;5009657;28;20476;-74
2023/06/21 15:30:14;;;;;;;1999.90;999.90;;;;;;;;;;5003210;28;20215;-73
2023/06/21 15:32:59;;;;;;;1999.90;999.90;;;;;;;;;;5005710;28;20257;-73
2023/06/21 15:35:44;;;;;;;1999.90;999.90;;;;;;;;;;5005029;28;20277;-74
2023/06/21 15:38:29;;;;;;;1999.90;999.90;;;;;;;;;;5009692;28;20582;-74
2023/06/21 15:41:15;;;;;;;1999.90;999.90;;;;;;;;;;5012405;28;20300;-75
2023/06/21 15:44:00;;;;;;;1999.90;999.90;;;;;;;;;;5012173;28;20329;-74
2023/06/21 15:46:46;;;;;;;1999.90;999.90;;;;;;;;;;5011840;28;20215;-74
2023/06/21 15:49:31;;;;;;;1999.90;999.90;;;;;;;;;;5013460;28;20432;-74
2023/06/21 15:52:16;;;;;;;1999.90;999.90;;;;;;;;;;5012944;28;20202;-73
2023/06/21 15:55:01;;;;;;;1999.90;999.90;;;;;;;;;;5010337;28;20725;-74
2023/06/21 15:57:48;;;;;;;1999.90;999.90;;;;;;;;;;5008365;28;20227;-73
2023/06/21 16:00:34;;;;;;;1999.90;999.90;;;;;;;;;;5004715;28;20455;-74
2023/06/21 16:03:19;;;;;;;1999.90;999.90;;;;;;;;;;5012345;28;20581;-71
2023/06/21 16:06:04;;;;;;;1999.90;999.90;;;;;;;;;;5013123;28;20346;-75
2023/06/21 16:08:49;;;;;;;1999.90;999.90;;;;;;;;;;5011615;28;20285;-74
2023/06/21 16:11:34;;;;;;;1999.90;999.90;;;;;;;;;;5013075;28;20711;-74
2023/06/21 16:14:20;;;;;;;1999.90;999.90;;;;;;;;;;5013045;28;20241;-76
2023/06/21 16:17:05;;;;;;;1999.90;999.90;;;;;;;;;;5009060;28;20213;-75
2023/06/21 16:19:50;;;;;;;1999.90;999.90;;;;;;;;;;5010487;28;20494;-73
2023/06/21 16:22:35;;;;;;;1999.90;999.90;;;;;;;;;;5006145;28;20952;-74
2023/06/21 16:25:20;;;;;;;1999.90;999.90;;;;;;;;;;5013094;28;20241;-72
2023/06/21 16:28:05;;;;;;;1999.90;999.90;;;;;;;;;;5012859;28;20261;-73
2023/06/21 16:30:51;;;;;;;1999.90;999.90;;;;;;;;;;5011548;28;20289;-75
2023/06/21 16:33:36;;;;;;;1999.90;999.90;;;;;;;;;;5007582;28;20621;-75
2023/06/21 16:36:21;;;;;;;1999.90;999.90;;;;;;;;;;5011399;28;20289;-75
2023/06/21 16:39:06;;;;;;;1999.90;999.90;;;;;;;;;;5011932;28;20242;-74
2023/06/21 16:41:50;;;;;;;1999.90;999.90;;;;;;;;;;5008442;28;20209;-74
2023/06/21 16:44:35;;;;;;;1999.90;999.90;;;;;;;;;;5005615;28;20754;-75
2023/06/21 16:47:22;;;;;;;1999.90;999.90;;;;;;;;;;5013380;28;20230;-74
2023/06/21 16:50:08;;;;;;;1999.90;999.90;;;;;;;;;;5008957;28;20207;-74
2023/06/21 16:52:53;;;;;;;1999.90;999.90;;;;;;;;;;5011270;28;20215;-73
2023/06/21 16:55:38;;;;;;;1999.90;999.90;;;;;;;;;;5008987;28;20688;-75
2023/06/21 16:58:23;;;;;;;1999.90;999.90;;;;;;;;;;5012722;28;20206;-74
2023/06/21 17:01:08;;;;;;;1999.90;999.90;;;;;;;;;;5012122;28;20358;-73
2023/06/21 17:03:54;;;;;;;1999.90;999.90;;;;;;;;;;5012366;28;20594;-73
2023/06/21 17:06:39;;;;;;;1999.90;999.90;;;;;;;;;;5008703;28;20283;-74
2023/06/21 17:09:24;;;;;;;1999.90;999.90;;;;;;;;;;5012277;28;20198;-73
2023/06/21 17:12:15;;;;;;;1999.90;999.90;;;;;;;;;;5010978;28;20431;-72
2023/06/21 17:15:00;;;;;;;1999.90;999.90;;;;;;;;;;5010281;28;20227;-72
2023/06/21 17:17:45;;;;;;;1999.90;999.90;;;;;;;;;;5007671;28;20293;-73
2023/06/21 17:20:31;;;;;;;1999.90;999.90;;;;;;;;;;5004399;28;20226;-73
2023/06/21 17:23:16;;;;;;;1999.90;999.90;;;;;;;;;;5012109;28;20345;-74
2023/06/21 17:26:02;;;;;;;1999.90;999.90;;;;;;;;;;5011257;28;20234;-73
2023/06/21 17:28:47;;;;;;;1999.90;999.90;;;;;;;;;;5005797;28;20338;-73
2023/06/21 17:31:31;;;;;;;1999.90;999.90;;;;;;;;;;5007576;28;20576;-73
2023/06/21 17:34:16;;;;;;;1999.90;999.90;;;;;;;;;;5007259;28;20643;-74
2023/06/21 17:37:03;;;;;;;1999.90;999.90;;;;;;;;;;5012088;28;20215;-74
2023/06/21 17:39:48;;;;;;;1999.90;999.90;;;;;;;;;;5011746;28;20309;-73
2023/06/21 17:42:33;;;;;;;1999.90;999.90;;;;;;;;;;5009304;28;20444;-74
2023/06/21 17:45:18;;;;;;;1999.90;999.90;;;;;;;;;;5011664;28;20235;-74
2023/06/21 17:48:03;;;;;;;1999.90;999.90;;;;;;;;;;5007825;28;20357;-74